Aeroporto :
LOGIN :

Iscrizione | Disclaimer

   EN    FR    IT 

 










Sommario :    VFR   VFR Marginale   IFR   IFR Intensivo   IFR Molto Intensivo
Visibilità : 
Base nubi : 
>= 8 km
>= 3000ft
5 / 8 km
1000 / 3000 ft
1500m / 5 km
500 / 1000 ft
800 / 1500m
200 / 500 ft
< 800m
< 200 ft
Simboli :   Temporali  Nebbia  Neve Forte  Precipitazioni Forti  Vento > 20 kt
SIGMETs :   Varie  Temporali  Ghiacco  Turbolenza  Onda orograficha  Ceneri Vulcaniche






- Altitudine del aeroporto : 218 ft
- Codice IATA : LBG


LFPB - Paris / Le Bourget

ULTIMO METAR :
  • 251600Z AUTO 23011KT 190V250 CAVOK 07/04 Q1003 TEMPO 28020G40KT 1500 TSRAGS SCT030CB

METARs OBSOLETI :
  • 251530Z AUTO 24013KT 9999 FEW046/// BKN110/// BKN130/// ///TCU 08/05 Q1004 TEMPO 28020G40KT 1500 TSRAGS SCT030CB
  • 251500Z AUTO 27013KT 240V300 5000 -RA BR SCT016/// SCT025/// BKN033/// ///CB 08/06 Q1004 TEMPO 28020G40KT 1500 TSRAGS
  • 251430Z AUTO 26007KT 220V300 9999 SCT038/// BKN047/// BKN056/// ///CB 09/05 Q1003 TEMPO 28020G40KT 1500 TSRAGS
  • 251400Z AUTO 24007KT 210V280 9999 FEW011/// BKN100/// ///TCU 08/05 Q1004 TEMPO 28020G40KT 2500 TSRAGS SCT030CB
  • 251330Z AUTO 27014KT 220V300 5000 R07/1400D -RA BR FEW025/// BKN031/// BKN038/// ///CB 07/04 Q1005 TEMPO 28020G40KT 2500 TSRAGS

TAF AMD TAF LFPB
Valido dal 25 a 13 ore il 26 a 12 ore UTC


251352Z 2513/2612 26015G30KT 9999 BKN030
PROB40
TEMPO 2513/2520 3500 SHRA SCT030TCU
PROB30
TEMPO 2513/2518 28020G40KT 1500 TSRAGS SCT030CB
PROB40
TEMPO 2603/2609 3500 SHRASN SCT010 SCT020TCU
PROB30
TEMPO 2603/2609 1500 SHSN
PROB40
TEMPO 2610/2612 27020G35KT 4000 SHRA SCT025TCU
PROB30
TEMPO 2610/2612 2500 TSRAGS SCT030CB
ATIS : +33 1 48 62 43 92



MetMap, La meteo Aeronautica in un colpo d'occhio ! - Copyright ORBIFLY Dicembre 2007 - Disclaimer

ORBIFLY MET'MAP TEAM :

Programmazione e sviluppo : Alexandra Zaïnal
Concezione : Baudouin d'Aumeries
Aiuto per la programmazione : Marc-Olivier Méhu
Supporto tecnico e logistico : Manuel Goepfert
Aiuto per la traduzione : Arnaldo La Scala

Contatto : metmap@orbifly.com




FONTI E CREDITI :

   NOAA